Latest METARs, TAFs and NOTAMs for LSGG


---------------------------------------------------------------------------
	(OBSERVATIONS)
LSGG 222250Z AUTO 31002KT CAVOK 22/17 Q1022 NOSIG=
LSGG 222220Z AUTO VRB01KT CAVOK 23/16 Q1022 NOSIG=
LSGG 222150Z AUTO VRB02KT CAVOK 24/16 Q1022 NOSIG=
LSGG 222120Z VRB01KT CAVOK 24/17 Q1022 NOSIG=
LSGG 222050Z 00000KT CAVOK 25/15 Q1022 NOSIG=
LSGG 222020Z VRB01KT CAVOK 26/15 Q1021 NOSIG=
---------------------------------------------------------------------------
	(FC)
Sorry, FC For LSGG Not Found
---------------------------------------------------------------------------
	(TERMINAL AREA FORECAST)
LSGG 222025Z 2221/2403 VRB03KT CAVOK TX34/2315Z TN18/2304Z=
---------------------------------------------------------------------------
	(NOTAMS)


LSGG A0167/19 REF AIRAC AMDT 04/19: PAGES LSGG AD 2-33, AD 2-36,
    AD 2.24.9-5 AND AD 2.24.9-11: RNAV STAR BANKO 3N/3R: MCA
    AT GG520 CHANGED TO FL180 INSTEAD OF FL200. DISREGARD MCA
    AT GOLEB. RNAV STAR KINES 2N/2R: DISREGARD MCA AT GOLEB.
    PAGE LSGG AD 2.24.9-15: NON RNAV STAR BANKO 8S: MCA AT GG520
    CHANGED TO FL180 INSTEAD OF FL200. DISREGARD MCA AT GOLEB.
    01 APR 14:17 2019 UNTIL PERM. CREATED: 01 APR 14:18 2019

LSGG A0259/19 TFC SUSPENDED DUE TO NTL DAY FIREWORKS IN AD VCY.
    EXP UP TO 20 MIN DLA. 01 AUG 20:00 2019 UNTIL 01 AUG 20:20
    2019. CREATED: 08 MAY 13:06 2019

LSGG A0337/19 CRANE 3.2KM 178DEG GEO ARP LSGG, MARKED, LIGHTED,
    461233N0060639E, 46.0M / 151.0FT AGL, 468.8M / 1538.0FT AMSL.
    12 JUN 04:38 2019 UNTIL 29 MAY 23:59 2020 ESTIMATED. CREATED:
    12 JUN 04:38 2019

LSGG A0338/19 MOBILE CRANE 2.1KM 173DEG GEO ARP LSGG, MARKED,
    LGTD, 461310N0060645E, 81.0M / 265.8FT AGL, 517.0M / 1696.2FT
    AMSL. 12 JUN 04:47 2019 UNTIL 29 SEP 23:59 2019 ESTIMATED.
    CREATED: 12 JUN 04:47 2019

LSGG A0391/19 FRIBOURG VOR/DME FRI 110.850 U/S DUE TO MAINT.
    0700-1500, 23 JUL 07:00 2019 UNTIL 24 JUL 15:00 2019. CREATED:
    03 JUL 14:12 2019

LSGG A0392/19 FRIBOURG VOR/DME FRI 110.850 U/S DUE TO MAINT.
    REP TO ATC IF UNA TO FLY THE ASSIGNED STAR. 0700-1500, 23
    JUL 07:00 2019 UNTIL 24 JUL 15:00 2019. CREATED: 03 JUL 14:12
    2019

LSGG A0394/19 TRIGGER NOTAM - PERM AIRAC AMDT 009/19: STAR BANKO
    3N, BANKO 3R, BANKO 8S, KINES 2N AND KINES 2R: MCA AT GG520
    AND GOLEB MODIFIED. 15 AUG 00:00 2019 UNTIL 29 AUG 23:59
    2019. CREATED: 04 JUL 05:00 2019

LSGG A0396/19 ST PREX VOR/DME SPR 113.900 U/S DUE TO MAINT. 25
    JUL 07:00 2019 UNTIL 25 JUL 12:00 2019. CREATED: 04 JUL 05:07
    2019

LSGG A0397/19 ST PREX VOR/DME SPR 113.900 U/S DUE TO MAINT. REP
    TO GND (SID) OR ATC (STAR) IF UNA TO FLY THE ASSIGNED SID/STAR.
    IN CASE OF MISSED APCH RWY 22, INITIAL CLIMB CLR 7000FT.
    CLIMB ON TR 224 DEG. EXP RADAR VECTORING BY ATC. IN CASE
    OF MISSED APCH RWY 04, INITIAL CLIMB CLR 7000FT. CLIMB ON
    TR 044 DEG. EXP RADAR VECTORING BY ATC. 25 JUL 07:00 2019
    UNTIL 25 JUL 12:00 2019. CREATED: 04 JUL 05:07 2019

LSGG A0399/19 WIP LEFT OF RWY 04 BTN BEGINNING OF RWY 04 AND
    TWY Z. MNM DIST OF 120M FM RWY AXIS. DLY 0400-2200, 06 JUL
    05:15 2019 UNTIL 31 AUG 22:00 2019. CREATED: 06 JUL 05:15
    2019

LSGG A0401/19 PASSEIRY DVOR/DME PAS 116.600 U/S DUE TO MAINT.
    30 JUL 06:00 2019 UNTIL 30 JUL 14:00 2019. CREATED: 08 JUL
    05:19 2019

LSGG A0402/19 PASSEIRY DVOR/DME PAS 116.600 U/S DUE TO MAINT.
    REP TO GND IF UNA TO FLY THE ASSIGNED SID. 30 JUL 06:00 2019
    UNTIL 30 JUL 14:00 2019. CREATED: 08 JUL 05:20 2019

LSGG A0417/19 RWY 04 ILS INE 110.900 AND RWY 22 ILS ISW 109.900
    U/S DUE TO MAINT. AVBL O/R WI 15 MIN. 14 AUG 21:30 2019 UNTIL
    15 AUG 01:00 2019. CREATED: 11 JUL 14:55 2019

LSGG A0420/19 ST PREX VOR/DME SPR 113.900 U/S DUE TO MAINT. 13
    AUG 07:00 2019 UNTIL 13 AUG 12:00 2019. CREATED: 12 JUL 06:06
    2019

LSGG A0421/19 ST PREX VOR/DME SPR 113.900 U/S DUE TO MAINT. REP
    TO GND (SID) OR ATC (STAR) IF UNA TO FLY THE ASSIGNED SID/STAR.
    IN CASE OF MISSED APCH RWY 22, INITIAL CLIMB CLR 7000FT.
    CLIMB ON TR 224 DEG. EXP RADAR VECTORING BY ATC. IN CASE
    OF MISSED APCH RWY 04, INITIAL CLIMB CLR 7000FT. CLIMB ON
    TR 044 DEG. EXP RADAR VECTORING BY ATC. 13 AUG 07:00 2019
    UNTIL 13 AUG 12:00 2019. CREATED: 12 JUL 06:06 2019

LSGG A0429/19 RWY 04/22 CLSD AFT LAST SKED FLT DUE TO WIP. NO
    EVACUATION POSS. AD NOT TO BE PLANNED AS ALTN. 2200-0400,
    22 JUL 22:00 2019 UNTIL 25 JUL 04:00 2019. CREATED: 17 JUL
    07:48 2019

LSGG A0440/19 PASSEIRY DVOR/DME PAS 116.600 U/S DUE TO MAINT.
    REP TO GND IF UNA TO FLY THE ASSIGNED SID. 13 AUG 20:00 2019
    UNTIL 14 AUG 01:00 2019. CREATED: 19 JUL 06:18 2019

LSGG A0441/19 PASSEIRY DVOR/DME PAS 116.600 U/S DUE TO MAINT.
    13 AUG 20:00 2019 UNTIL 14 AUG 01:00 2019. CREATED: 19 JUL
    06:18 2019

LSGG A0442/19 RWY 22 ILS ISW 109.900 U/S DUE TO MAINT. 22 AUG
    21:30 2019 UNTIL 23 AUG 03:30 2019. CREATED: 19 JUL 13:58
    2019

LSGG A0443/19 RWY 22 ILS ISW 109.900 U/S DUE TO MAINT. 29 AUG
    21:30 2019 UNTIL 30 AUG 03:30 2019. CREATED: 19 JUL 14:14
    2019

LSGG A0444/19 MOBILE CRANE 0.6KM 179DEG GEO ARP LSGG, MARKED,
    LGTD, 461357N0060633E, 79.0M / 259.2FT AGL, 501.0M / 1643.8FT
    AMSL. 20 JUL 06:36 2019 UNTIL 24 AUG 23:59 2019 ESTIMATED.
    CREATED: 20 JUL 06:36 2019

LSGG A0449/19 GPS RAIM IS NOT AVAILABLE FOR LNAV AND LNAV/VNAV.
    24 JUL 11:11 2019 UNTIL 24 JUL 11:16 2019. CREATED: 22 JUL
    08:02 2019

LSGG A0450/19 RWY 04/22 CLSD AFT LAST SKED FLT DUE TO WIP. NO
    EVACUATION POSS. AD NOT TO BE PLANNED AS ALTN. 30 JUL 22:00
    2019 UNTIL 31 JUL 04:00 2019. CREATED: 22 JUL 10:47 2019

LSGG A0451/19 SID CHANGED DUE TO AIR DISPLAY EAST OF LSGG TMA.
    SID KONIL: TFC PCD VIA SOSAL, CROSS KONIL FL130 OR ABV. SID
    MOLUS: PASS FL130 OR ABV 3NM BFR MOLUS. IF UNA, NOTIFY ATC.
    30 JUL 11:50 2019 UNTIL 30 JUL 13:05 2019. CREATED: 22 JUL
    10:50 2019

LSGG A0452/19 SID CHANGED DUE TO AIR DISPLAY EAST OF LSGG TMA.
    SID KONIL: TFC PCD VIA SOSAL, CROSS KONIL FL130 OR ABV. SID
    MOLUS: PASS FL130 OR ABV 3NM BFR MOLUS. IF UNA, NOTIFY ATC.
    01 AUG 09:50 2019 UNTIL 01 AUG 10:55 2019. CREATED: 22 JUL
    10:50 2019

LSGG A0574/18 CRANE 1.7KM 134DEG GEO ARP LSGG, MARKED, LGTD,
    461339N0060731E, 50.0M / 164.1FT AGL, 507.0M / 1663.4FT AMSL.
    02 NOV 12:48 2018 UNTIL 18 JAN 23:59 2020 ESTIMATED. CREATED:
    02 NOV 12:48 2018

LSGG B0172/19 FOR VFR TFC ONLY: ACFT AND HEL MUST ACT THEIR TRANSPONDER
    (MODE A/C/S) WI LSGG CTR UNLESS OTHERWISE INSTRUCTED BY ATC.
    21 FEB 00:00 2019 UNTIL PERM. CREATED: 01 FEB 12:17 2019

---------------------------------------------------------------------------